Time;durP1;ratioP1;P1;durP2;ratioP2;P2;SDS_P1;SDS_P2;PMS_P1;PMS_P2;Temp;Humidity;BMP_temperature;BMP_pressure;BME280_temperature;BME280_humidity;BME280_pressure;Samples;Min_cycle;Max_cycle;Signal;HPM_P1;HPM_P2
2022/07/26 00:01:01;;;;;;;2.28;0.65;;;21.60;95.80;;;;;;4095175;28;20135;-67
2022/07/26 00:03:02;;;;;;;2.03;0.90;;;21.60;94.70;;;;;;4095462;28;20104;-66
2022/07/26 00:05:03;;;;;;;3.88;1.00;;;21.60;96.30;;;;;;4095746;28;20086;-70
2022/07/26 00:07:04;;;;;;;2.13;1.00;;;21.60;95.40;;;;;;4095254;28;20079;-66
2022/07/26 00:09:05;;;;;;;2.47;0.70;;;21.60;95.60;;;;;;4094346;28;20449;-66
2022/07/26 00:11:05;;;;;;;4.55;0.98;;;21.50;95.40;;;;;;4094414;28;20031;-66
2022/07/26 00:13:06;;;;;;;5.13;0.55;;;21.50;95.20;;;;;;4095812;28;20027;-66
2022/07/26 00:15:09;;;;;;;1.42;0.70;;;21.40;95.60;;;;;;4094899;28;20491;-66
2022/07/26 00:17:10;;;;;;;2.55;0.80;;;21.40;95.90;;;;;;4095540;28;20110;-66
2022/07/26 00:19:10;;;;;;;4.15;1.05;;;21.40;96.00;;;;;;4094533;28;20471;-66
2022/07/26 00:21:11;;;;;;;2.58;1.38;;;21.30;96.00;;;;;;4095281;28;20043;-66
2022/07/26 00:23:11;;;;;;;3.63;1.20;;;21.30;95.70;;;;;;4095527;28;20027;-66
2022/07/26 00:25:12;;;;;;;3.20;1.15;;;21.30;96.70;;;;;;4094751;28;20047;-66
2022/07/26 00:27:13;;;;;;;3.70;1.10;;;21.20;97.40;;;;;;4095364;28;20031;-66
2022/07/26 00:29:13;;;;;;;2.40;1.10;;;21.20;96.30;;;;;;4094594;28;20126;-66
2022/07/26 00:31:14;;;;;;;2.35;1.08;;;21.20;95.90;;;;;;4094982;28;20394;-66
2022/07/26 00:33:14;;;;;;;4.43;0.85;;;21.20;96.00;;;;;;4095952;28;20043;-66
2022/07/26 00:35:15;;;;;;;3.00;1.15;;;21.20;96.60;;;;;;4095029;28;20059;-66
2022/07/26 00:37:15;;;;;;;3.03;1.17;;;21.20;96.80;;;;;;4095717;28;20690;-66
2022/07/26 00:39:16;;;;;;;3.65;1.40;;;21.20;97.10;;;;;;4094325;28;20041;-66
2022/07/26 00:41:17;;;;;;;3.10;1.30;;;21.20;96.30;;;;;;4094400;28;20450;-66
2022/07/26 00:43:18;;;;;;;3.33;1.35;;;21.10;96.20;;;;;;4092814;28;20047;-66
2022/07/26 00:45:19;;;;;;;4.55;1.20;;;21.20;96.80;;;;;;4094598;28;20394;-66
2022/07/26 00:47:19;;;;;;;2.20;1.27;;;21.20;96.60;;;;;;4095169;28;20027;-66
2022/07/26 00:49:20;;;;;;;3.22;1.40;;;21.20;97.40;;;;;;4093539;28;20043;-66
2022/07/26 00:51:21;;;;;;;2.28;1.15;;;21.20;96.60;;;;;;4094659;28;20395;-66
2022/07/26 00:53:22;;;;;;;3.50;1.50;;;21.20;96.90;;;;;;4095114;28;20047;-66
2022/07/26 00:55:23;;;;;;;3.30;1.17;;;21.20;96.70;;;;;;4094211;28;20041;-66
2022/07/26 00:57:24;;;;;;;2.70;1.33;;;21.20;97.40;;;;;;4095138;28;20110;-66
2022/07/26 00:59:25;;;;;;;4.10;1.35;;;21.20;97.20;;;;;;4084308;28;20035;-66
2022/07/26 01:01:26;;;;;;;3.42;1.40;;;21.10;96.80;;;;;;4081110;29;20047;-66
2022/07/26 01:03:26;;;;;;;3.08;1.45;;;21.10;97.50;;;;;;4094348;28;20035;-66
2022/07/26 01:05:34;;;;;;;3.30;1.77;;;21.10;96.80;;;;;;4094209;28;20640;-66
2022/07/26 01:07:37;;;;;;;5.95;1.60;;;21.20;96.90;;;;;;4093755;28;20042;-66
2022/07/26 01:09:38;;;;;;;2.92;1.25;;;21.10;96.90;;;;;;4094336;28;20086;-66
2022/07/26 01:11:39;;;;;;;4.00;1.75;;;21.20;96.90;;;;;;4093930;29;20097;-66
2022/07/26 01:13:46;;;;;;;3.25;1.48;;;21.20;97.40;;;;;;4081550;29;20035;-66
2022/07/26 01:15:46;;;;;;;4.53;1.55;;;21.20;96.80;;;;;;4078754;29;20079;-66
2022/07/26 01:17:47;;;;;;;4.88;1.95;;;21.20;97.10;;;;;;4092651;28;20407;-66
2022/07/26 01:19:48;;;;;;;4.45;1.70;;;21.20;97.10;;;;;;4094048;28;20490;-66
2022/07/26 01:21:50;;;;;;;4.47;2.10;;;21.10;96.50;;;;;;4094483;28;20047;-66
2022/07/26 01:23:50;;;;;;;3.65;1.58;;;21.10;97.00;;;;;;4096042;28;20086;-66
2022/07/26 01:25:51;;;;;;;3.63;1.60;;;21.10;96.90;;;;;;4095235;28;20047;-66
2022/07/26 01:27:53;;;;;;;4.38;1.90;;;21.10;97.50;;;;;;4095130;28;20035;-66
2022/07/26 01:32:50;;;;;;;4.28;1.67;;;21.10;97.00;;;;;;4094488;29;20071;-66
2022/07/26 01:34:50;;;;;;;3.88;1.80;;;21.00;97.30;;;;;;4096076;28;20054;-66
2022/07/26 01:36:53;;;;;;;4.30;1.85;;;20.90;97.40;;;;;;4094572;28;20031;-66
2022/07/26 01:38:53;;;;;;;4.85;1.85;;;20.90;97.10;;;;;;4091495;28;20498;-66
2022/07/26 01:40:54;;;;;;;4.97;1.95;;;20.90;98.10;;;;;;4095305;28;20062;-66
2022/07/26 01:42:54;;;;;;;6.15;1.90;;;20.90;98.00;;;;;;4093485;28;20043;-66
2022/07/26 01:44:55;;;;;;;4.75;1.77;;;20.80;97.80;;;;;;4095059;28;20062;-66
2022/07/26 01:49:53;;;;;;;2.85;1.60;;;20.80;97.90;;;;;;4092698;28;20082;-66
2022/07/26 01:51:53;;;;;;;5.05;1.73;;;20.70;98.10;;;;;;4095235;28;20043;-66
2022/07/26 01:53:54;;;;;;;3.25;1.45;;;20.70;98.60;;;;;;4095908;28;20035;-66
2022/07/26 01:59:47;;;;;;;4.00;1.55;;;20.70;98.30;;;;;;4092223;28;20051;-66
2022/07/26 02:01:48;;;;;;;4.03;1.40;;;20.70;98.60;;;;;;4097289;28;20570;-66
2022/07/26 02:03:48;;;;;;;5.45;1.60;;;20.70;98.30;;;;;;4098995;28;20035;-67
2022/07/26 02:14:58;;;;;;;6.38;1.60;;;20.60;98.60;;;;;;4096372;28;20132;-66
2022/07/26 02:16:58;;;;;;;4.05;1.40;;;20.50;99.00;;;;;;4097224;28;20139;-66
2022/07/26 02:18:59;;;;;;;9.23;1.60;;;20.50;99.10;;;;;;4097702;28;20032;-66
2022/07/26 02:21:01;;;;;;;4.53;1.80;;;20.50;99.50;;;;;;4097980;28;20118;-66
2022/07/26 02:23:03;;;;;;;7.57;2.37;;;20.50;99.30;;;;;;4098587;28;20054;-66
2022/07/26 02:25:04;;;;;;;6.60;2.00;;;20.50;99.70;;;;;;4098092;28;20031;-66
2022/07/26 02:27:05;;;;;;;5.18;2.03;;;20.40;99.50;;;;;;4097771;28;20042;-67
2022/07/26 02:29:06;;;;;;;4.25;1.50;;;20.40;99.60;;;;;;4097472;28;20027;-66
2022/07/26 02:31:07;;;;;;;6.82;2.10;;;20.40;99.90;;;;;;4098429;28;20035;-66
2022/07/26 02:33:07;;;;;;;5.50;1.60;;;20.40;99.90;;;;;;4098946;28;20479;-66
2022/07/26 02:35:09;;;;;;;4.20;1.67;;;20.40;99.90;;;;;;4098291;28;20027;-67
2022/07/26 02:37:09;;;;;;;6.00;1.95;;;20.40;99.90;;;;;;4098030;28;20043;-66
2022/07/26 02:39:10;;;;;;;5.32;2.00;;;20.40;99.90;;;;;;4097906;28;20275;-66
2022/07/26 02:41:11;;;;;;;5.68;2.17;;;20.30;99.90;;;;;;4093787;28;20123;-66
2022/07/26 02:43:11;;;;;;;7.53;1.77;;;20.20;99.90;;;;;;4097588;28;20070;-66
2022/07/26 02:45:12;;;;;;;4.43;1.50;;;20.20;99.90;;;;;;4098099;28;20043;-66
2022/07/26 02:47:12;;;;;;;3.60;1.23;;;20.20;99.90;;;;;;4097854;28;20038;-66
2022/07/26 02:49:13;;;;;;;4.78;1.65;;;20.30;99.90;;;;;;4096677;28;20042;-67
2022/07/26 02:51:14;;;;;;;5.28;2.03;;;20.30;99.90;;;;;;4097720;28;20115;-67
2022/07/26 02:53:14;;;;;;;3.67;1.40;;;20.20;99.90;;;;;;4098422;28;20402;-66
2022/07/26 02:55:16;;;;;;;4.10;1.40;;;20.20;99.90;;;;;;4097925;28;20475;-66
2022/07/26 02:57:16;;;;;;;4.78;1.92;;;20.30;99.90;;;;;;4096912;28;20109;-66
2022/07/26 02:59:20;;;;;;;6.05;2.28;;;20.20;99.90;;;;;;4093420;28;20090;-66
2022/07/26 03:01:20;;;;;;;6.68;2.00;;;20.10;99.90;;;;;;4097326;28;20036;-66
2022/07/26 03:03:21;;;;;;;6.85;1.90;;;20.10;99.90;;;;;;4089306;28;20054;-66
2022/07/26 03:05:22;;;;;;;5.30;1.85;;;20.10;99.90;;;;;;4089111;28;20040;-66
2022/07/26 03:07:22;;;;;;;6.32;1.98;;;20.10;99.90;;;;;;4093778;28;20039;-66
2022/07/26 03:09:23;;;;;;;10.20;2.08;;;20.10;99.90;;;;;;4090562;28;20410;-66
2022/07/26 03:11:23;;;;;;;5.72;1.80;;;20.10;99.90;;;;;;4091460;28;20209;-66
2022/07/26 03:13:24;;;;;;;8.15;1.85;;;20.10;99.90;;;;;;4084265;28;20044;-66
2022/07/26 03:15:24;;;;;;;6.30;1.63;;;20.10;99.90;;;;;;4083337;28;20043;-66
2022/07/26 03:17:25;;;;;;;6.95;1.83;;;20.10;99.90;;;;;;4094546;28;20136;-66
2022/07/26 03:19:25;;;;;;;6.22;1.80;;;20.10;99.90;;;;;;4091522;28;20031;-66
2022/07/26 03:21:26;;;;;;;3.78;1.52;;;20.10;99.90;;;;;;4083459;28;20383;-66
2022/07/26 03:23:27;;;;;;;5.15;1.63;;;20.00;99.90;;;;;;4083963;28;20024;-66
2022/07/26 03:25:28;;;;;;;5.13;1.98;;;20.00;99.90;;;;;;4087253;28;20039;-66
2022/07/26 03:27:28;;;;;;;3.17;1.50;;;20.10;99.90;;;;;;4084262;28;20031;-66
2022/07/26 03:29:29;;;;;;;5.50;1.63;;;20.10;99.90;;;;;;4086229;28;20095;-66
2022/07/26 03:31:30;;;;;;;6.20;1.58;;;20.10;99.90;;;;;;4086223;28;20039;-66
2022/07/26 03:33:30;;;;;;;7.88;1.65;;;20.20;99.90;;;;;;4083824;29;20091;-66
2022/07/26 03:35:31;;;;;;;3.97;1.70;;;20.10;99.90;;;;;;4091219;28;20062;-66
2022/07/26 03:37:31;;;;;;;3.80;1.30;;;20.20;99.90;;;;;;4092191;28;20458;-66
2022/07/26 03:39:32;;;;;;;4.70;1.60;;;20.10;99.90;;;;;;4086064;28;20369;-67
2022/07/26 03:41:33;;;;;;;3.50;1.25;;;20.10;99.90;;;;;;4090850;28;20036;-67
2022/07/26 03:43:33;;;;;;;4.80;1.55;;;20.10;99.90;;;;;;4087574;28;20168;-67
2022/07/26 03:45:34;;;;;;;4.85;1.27;;;20.20;99.90;;;;;;4081888;28;20407;-69
2022/07/26 03:47:36;;;;;;;4.07;1.58;;;20.10;99.90;;;;;;4091235;28;20035;-67
2022/07/26 03:49:36;;;;;;;9.80;1.77;;;20.20;99.90;;;;;;4091299;28;20035;-66
2022/07/26 03:51:37;;;;;;;3.80;1.17;;;20.20;99.90;;;;;;4087550;28;20031;-67
2022/07/26 03:53:37;;;;;;;7.10;1.88;;;20.10;99.90;;;;;;4084802;28;20503;-66
2022/07/26 03:57:57;;;;;;;7.75;1.70;;;20.10;99.90;;;;;;4085371;28;20546;-66
2022/07/26 03:59:57;;;;;;;3.25;1.15;;;20.10;99.90;;;;;;4084012;28;20051;-67
2022/07/26 04:01:58;;;;;;;8.23;2.03;;;20.20;99.90;;;;;;4091302;28;20039;-66
2022/07/26 04:03:59;;;;;;;9.73;2.22;;;20.10;99.90;;;;;;4093879;28;20086;-67
2022/07/26 04:06:00;;;;;;;6.95;2.00;;;20.10;99.90;;;;;;4092620;28;20414;-66
2022/07/26 04:08:00;;;;;;;7.38;1.80;;;20.10;99.90;;;;;;4094244;28;20143;-66
2022/07/26 04:10:01;;;;;;;5.53;1.50;;;20.10;99.90;;;;;;4095186;28;20106;-67
2022/07/26 04:12:01;;;;;;;5.80;1.48;;;20.10;99.90;;;;;;4096181;28;20497;-66
2022/07/26 04:14:02;;;;;;;5.57;1.70;;;20.20;99.90;;;;;;4095163;28;20027;-66
2022/07/26 04:16:03;;;;;;;6.75;1.75;;;20.20;99.90;;;;;;4095739;28;20035;-67
2022/07/26 04:18:04;;;;;;;4.70;1.60;;;20.20;99.90;;;;;;4096412;28;20058;-66
2022/07/26 04:20:06;;;;;;;5.85;1.50;;;20.20;99.90;;;;;;4095001;28;20031;-66
2022/07/26 04:22:07;;;;;;;4.65;1.70;;;20.10;99.90;;;;;;4096511;28;20039;-66
2022/07/26 04:24:08;;;;;;;4.68;1.60;;;20.10;99.90;;;;;;4095976;28;20082;-67
2022/07/26 04:26:08;;;;;;;8.27;1.98;;;20.10;99.90;;;;;;4096313;28;20058;-66
2022/07/26 04:28:10;;;;;;;5.80;1.65;;;20.10;99.90;;;;;;4095659;28;20402;-67
2022/07/26 04:30:11;;;;;;;7.35;1.70;;;20.10;99.90;;;;;;4093395;29;20031;-67
2022/07/26 04:32:12;;;;;;;5.97;1.88;;;20.00;99.90;;;;;;4096417;28;20024;-66
2022/07/26 04:34:12;;;;;;;3.33;1.40;;;20.00;99.90;;;;;;4095928;28;20412;-66
2022/07/26 04:36:13;;;;;;;5.22;1.80;;;20.00;99.90;;;;;;4094309;28;20024;-66
2022/07/26 04:38:14;;;;;;;5.78;1.60;;;20.00;99.90;;;;;;4096628;28;20059;-66
2022/07/26 04:40:17;;;;;;;5.20;1.58;;;20.00;99.90;;;;;;4094688;28;20066;-68
2022/07/26 04:42:17;;;;;;;7.32;1.70;;;20.00;99.90;;;;;;4096150;28;20114;-67
2022/07/26 04:44:18;;;;;;;4.60;1.50;;;20.00;99.90;;;;;;4093723;28;20083;-66
2022/07/26 04:46:18;;;;;;;8.77;2.35;;;20.10;99.90;;;;;;4094987;28;20139;-66
2022/07/26 04:48:19;;;;;;;4.00;1.88;;;20.10;99.90;;;;;;4096540;28;20091;-67
2022/07/26 04:50:21;;;;;;;5.53;1.55;;;20.00;99.90;;;;;;4094633;28;20047;-66
2022/07/26 04:52:21;;;;;;;4.33;1.40;;;20.10;99.90;;;;;;4092837;28;20036;-67
2022/07/26 04:54:22;;;;;;;5.72;1.92;;;20.00;99.90;;;;;;4095455;28;20050;-66
2022/07/26 04:56:23;;;;;;;6.18;1.75;;;20.00;99.90;;;;;;4094845;28;20090;-66
2022/07/26 04:58:23;;;;;;;9.13;2.10;;;20.00;99.90;;;;;;4096089;28;20035;-66
2022/07/26 05:00:24;;;;;;;5.75;1.90;;;20.10;99.90;;;;;;4094164;28;20035;-66
2022/07/26 05:02:25;;;;;;;4.05;1.25;;;20.00;99.90;;;;;;4092958;28;20650;-66
2022/07/26 05:04:25;;;;;;;5.95;2.03;;;20.00;99.90;;;;;;4095396;28;20035;-67
2022/07/26 05:06:26;;;;;;;6.97;2.00;;;20.00;99.90;;;;;;4094760;28;20042;-66
2022/07/26 05:08:26;;;;;;;6.57;1.88;;;20.00;99.90;;;;;;4096137;28;20028;-66
2022/07/26 05:10:31;;;;;;;6.03;2.13;;;20.00;99.90;;;;;;4095129;28;20113;-66
2022/07/26 05:12:31;;;;;;;4.10;1.40;;;19.90;99.90;;;;;;4095243;28;20031;-66
2022/07/26 05:14:32;;;;;;;7.97;2.10;;;20.00;99.90;;;;;;4092029;28;20135;-66
2022/07/26 05:16:32;;;;;;;5.75;1.70;;;19.90;99.90;;;;;;4094160;29;20035;-66
2022/07/26 05:18:33;;;;;;;4.15;1.55;;;20.00;99.90;;;;;;4095507;28;20118;-66
2022/07/26 05:20:34;;;;;;;4.18;1.42;;;20.00;99.90;;;;;;4095068;28;20139;-66
2022/07/26 05:22:35;;;;;;;8.15;2.38;;;20.00;99.90;;;;;;4087486;28;20047;-66
2022/07/26 05:24:36;;;;;;;3.50;1.58;;;20.00;99.90;;;;;;4096136;28;20050;-66
2022/07/26 05:26:36;;;;;;;7.40;2.35;;;20.00;99.90;;;;;;4094896;28;20039;-66
2022/07/26 05:28:38;;;;;;;7.38;2.35;;;20.00;99.90;;;;;;4092792;28;20047;-67
2022/07/26 05:30:38;;;;;;;8.35;2.33;;;20.00;99.90;;;;;;4095502;28;20035;-66
2022/07/26 05:32:39;;;;;;;4.68;1.67;;;20.00;99.90;;;;;;4093603;28;20518;-66
2022/07/26 05:34:40;;;;;;;10.07;2.25;;;20.00;99.90;;;;;;4094484;28;20047;-66
2022/07/26 05:36:40;;;;;;;4.47;1.88;;;20.00;99.90;;;;;;4094044;28;20051;-66
2022/07/26 05:38:41;;;;;;;8.48;2.25;;;20.00;99.90;;;;;;4093616;28;20097;-67
2022/07/26 05:40:41;;;;;;;9.45;2.25;;;20.00;99.90;;;;;;4094359;28;20518;-66
2022/07/26 05:42:42;;;;;;;4.75;1.70;;;20.00;99.90;;;;;;4093117;28;20046;-66
2022/07/26 05:44:43;;;;;;;5.18;1.75;;;20.10;99.90;;;;;;4096865;28;20693;-66
2022/07/26 05:46:43;;;;;;;5.50;2.10;;;20.10;99.90;;;;;;4094191;28;20042;-66
2022/07/26 05:48:44;;;;;;;6.35;1.95;;;20.10;99.90;;;;;;4094162;28;20174;-66
2022/07/26 05:50:44;;;;;;;7.38;2.08;;;20.10;99.90;;;;;;4094639;28;20053;-67
2022/07/26 05:52:45;;;;;;;4.97;2.00;;;20.10;99.90;;;;;;4095036;29;20043;-67
2022/07/26 05:54:46;;;;;;;8.65;2.28;;;20.10;99.90;;;;;;4095515;28;20090;-67
2022/07/26 05:56:47;;;;;;;11.50;3.03;;;20.10;99.90;;;;;;4094070;28;20035;-67
2022/07/26 05:58:47;;;;;;;6.32;2.38;;;20.10;99.90;;;;;;4093800;28;20046;-67
2022/07/26 06:00:48;;;;;;;5.68;2.08;;;20.10;99.90;;;;;;4094532;28;20514;-66
2022/07/26 06:02:48;;;;;;;8.38;2.80;;;20.20;99.90;;;;;;4095977;28;20083;-66
2022/07/26 06:04:49;;;;;;;6.85;2.67;;;20.10;99.90;;;;;;4096033;28;20039;-67
2022/07/26 06:06:50;;;;;;;9.45;2.40;;;20.10;99.90;;;;;;4093385;28;20039;-66
2022/07/26 06:08:50;;;;;;;6.28;2.25;;;20.10;99.90;;;;;;4094426;28;20047;-66
2022/07/26 06:16:46;;;;;;;9.05;2.88;;;20.40;99.90;;;;;;4093810;28;20495;-68
2022/07/26 06:18:46;;;;;;;8.35;2.88;;;20.40;99.90;;;;;;4094022;28;20227;-68
2022/07/26 06:20:47;;;;;;;10.35;2.67;;;20.40;99.90;;;;;;4095071;28;20054;-68
2022/07/26 06:22:50;;;;;;;5.97;2.47;;;20.50;99.90;;;;;;4095509;28;20395;-69
2022/07/26 06:24:51;;;;;;;;;;;20.60;99.90;;;;;;4094768;28;20138;-68
2022/07/26 06:26:52;;;;;;;8.45;2.55;;;20.70;99.90;;;;;;4095448;28;19919;-68
2022/07/26 06:28:53;;;;;;;8.20;2.50;;;20.80;99.90;;;;;;4093984;28;20067;-68
2022/07/26 06:30:53;;;;;;;6.95;2.22;;;20.90;99.90;;;;;;4093944;28;20035;-68
2022/07/26 06:32:54;;;;;;;8.52;3.13;;;21.10;99.90;;;;;;4095729;29;20035;-68
2022/07/26 06:34:54;;;;;;;7.68;2.47;;;21.20;99.90;;;;;;4094860;28;20035;-68
2022/07/26 06:36:55;;;;;;;6.47;2.78;;;21.50;99.90;;;;;;4094369;28;20127;-68
2022/07/26 06:38:56;;;;;;;5.53;2.22;;;21.70;99.90;;;;;;4092020;28;20043;-68
2022/07/26 06:40:56;;;;;;;8.57;2.72;;;21.80;99.90;;;;;;4094915;28;20487;-68
2022/07/26 06:42:58;;;;;;;9.77;3.80;;;21.90;99.90;;;;;;4093714;28;20130;-68
2022/07/26 06:44:59;;;;;;;7.45;2.65;;;22.00;99.90;;;;;;4091271;28;20065;-68
2022/07/26 06:46:59;;;;;;;8.70;2.28;;;22.20;99.90;;;;;;4089436;28;20036;-68
2022/07/26 06:49:00;;;;;;;6.55;2.20;;;22.40;99.90;;;;;;4093942;28;20122;-68
2022/07/26 06:51:02;;;;;;;6.63;2.28;;;22.60;99.90;;;;;;4096209;28;20043;-68
2022/07/26 06:53:02;;;;;;;6.03;2.20;;;22.80;99.90;;;;;;4096146;28;20586;-68
2022/07/26 06:55:05;;;;;;;8.77;2.70;;;23.00;99.90;;;;;;4086816;29;20118;-69
2022/07/26 06:57:05;;;;;;;6.72;2.42;;;23.00;99.90;;;;;;4094047;28;20038;-68
2022/07/26 06:59:06;;;;;;;7.05;2.03;;;23.20;99.90;;;;;;4097018;28;20059;-68
2022/07/26 07:01:06;;;;;;;8.23;2.30;;;23.30;99.90;;;;;;4097480;28;20043;-68
2022/07/26 07:03:07;;;;;;;6.45;2.55;;;23.40;99.90;;;;;;4096039;28;20125;-69
2022/07/26 07:05:08;;;;;;;4.80;1.90;;;23.40;99.90;;;;;;4095610;28;20043;-69
2022/07/26 07:07:09;;;;;;;5.25;2.38;;;23.60;99.90;;;;;;4097467;28;20113;-69
2022/07/26 07:09:09;;;;;;;4.65;1.90;;;23.70;99.90;;;;;;4098628;28;20692;-69
2022/07/26 07:11:10;;;;;;;6.07;2.00;;;23.80;99.90;;;;;;4083725;29;20538;-69
2022/07/26 07:13:10;;;;;;;10.77;2.20;;;23.90;99.90;;;;;;4095605;28;20063;-69
2022/07/26 07:15:12;;;;;;;7.63;2.40;;;23.90;99.90;;;;;;4095874;28;20404;-69
2022/07/26 07:20:10;;;;;;;5.40;2.03;;;24.00;99.90;;;;;;4090157;28;20102;-69
2022/07/26 07:22:10;;;;;;;5.13;2.00;;;23.80;99.90;;;;;;4094366;28;20399;-69
2022/07/26 07:24:11;;;;;;;5.60;1.77;;;23.90;99.90;;;;;;4092553;28;20037;-69
2022/07/26 07:26:11;;;;;;;6.07;1.90;;;24.00;99.90;;;;;;4093563;28;20039;-69
2022/07/26 07:28:12;;;;;;;9.80;2.55;;;24.10;99.90;;;;;;4094792;28;20054;-69
2022/07/26 07:30:13;;;;;;;4.82;2.22;;;24.20;99.90;;;;;;4092315;28;20035;-69
2022/07/26 07:32:13;;;;;;;9.68;2.20;;;24.20;99.90;;;;;;4094549;28;20035;-69
2022/07/26 07:34:15;;;;;;;6.13;3.17;;;24.30;99.90;;;;;;4092364;28;20043;-70
2022/07/26 07:39:12;;;;;;;8.40;2.97;;;24.50;99.90;;;;;;4092065;28;20090;-69
2022/07/26 07:41:13;;;;;;;10.93;2.75;;;24.60;99.90;;;;;;4096746;28;20039;-69
2022/07/26 07:43:13;;;;;;;6.25;2.20;;;24.50;99.70;;;;;;4097217;28;20039;-69
2022/07/26 07:45:14;;;;;;;7.45;2.22;;;24.60;99.10;;;;;;4094064;28;20038;-69
2022/07/26 07:47:14;;;;;;;8.25;2.25;;;24.70;99.80;;;;;;4097884;28;20024;-69
2022/07/26 07:49:15;;;;;;;6.07;1.83;;;24.50;99.30;;;;;;4096847;28;20513;-69
2022/07/26 07:51:16;;;;;;;12.05;1.88;;;24.30;99.00;;;;;;4096862;28;20051;-69
2022/07/26 07:53:16;;;;;;;7.22;2.00;;;24.30;98.30;;;;;;4097634;28;20073;-70
2022/07/26 07:55:17;;;;;;;7.38;2.08;;;24.30;98.60;;;;;;4094799;28;20487;-69
2022/07/26 07:57:19;;;;;;;7.78;1.92;;;24.10;98.70;;;;;;4096137;28;20038;-69
2022/07/26 07:59:19;;;;;;;8.52;2.08;;;24.10;97.80;;;;;;4095490;28;20122;-69
2022/07/26 08:01:20;;;;;;;6.75;2.22;;;24.00;98.50;;;;;;4096220;28;20085;-68
2022/07/26 08:03:21;;;;;;;6.35;1.85;;;23.90;98.30;;;;;;4096875;28;20028;-69
2022/07/26 08:05:21;;;;;;;8.70;2.30;;;24.00;99.30;;;;;;4093826;28;20442;-68
2022/07/26 08:07:22;;;;;;;5.70;1.83;;;24.10;98.70;;;;;;4096064;28;20036;-69
2022/07/26 08:09:23;;;;;;;4.00;1.65;;;24.10;98.60;;;;;;4096333;28;20031;-68
2022/07/26 08:11:23;;;;;;;5.80;2.10;;;24.20;99.10;;;;;;4097127;28;20035;-68
2022/07/26 08:13:24;;;;;;;8.05;2.45;;;24.20;99.00;;;;;;4094540;28;20039;-69
2022/07/26 08:15:26;;;;;;;3.33;1.67;;;24.20;99.00;;;;;;4097041;28;20043;-69
2022/07/26 08:17:26;;;;;;;3.83;1.88;;;24.30;98.50;;;;;;4093661;28;20040;-69
2022/07/26 08:19:27;;;;;;;4.80;2.10;;;24.30;97.30;;;;;;4091661;28;20027;-69
2022/07/26 08:21:28;;;;;;;6.05;2.47;;;24.40;97.20;;;;;;4093455;28;20126;-69
2022/07/26 08:23:28;;;;;;;6.10;2.75;;;24.30;97.00;;;;;;4090344;28;20043;-69
2022/07/26 08:25:29;;;;;;;5.75;2.38;;;24.20;96.60;;;;;;4094818;28;20058;-69
2022/07/26 08:27:29;;;;;;;5.40;2.10;;;24.10;97.90;;;;;;4091833;28;20525;-69
2022/07/26 08:29:30;;;;;;;5.30;1.90;;;24.00;97.70;;;;;;4091812;28;20417;-69
2022/07/26 08:31:31;;;;;;;4.93;2.10;;;24.00;97.50;;;;;;4091813;28;20027;-69
2022/07/26 08:33:31;;;;;;;11.82;3.33;;;24.00;97.90;;;;;;4090764;28;20093;-69
2022/07/26 08:35:32;;;;;;;6.80;2.35;;;23.90;98.50;;;;;;4091303;28;20027;-69
2022/07/26 08:37:32;;;;;;;4.90;2.17;;;23.90;98.30;;;;;;4092026;28;20106;-69
2022/07/26 08:39:33;;;;;;;11.85;3.28;;;23.80;98.00;;;;;;4090540;28;20491;-68
2022/07/26 08:41:35;;;;;;;6.95;2.92;;;23.80;99.20;;;;;;4092046;28;20051;-68
2022/07/26 08:47:25;;;;;;;7.88;3.60;;;23.90;99.00;;;;;;4090093;28;20082;-68
2022/07/26 08:55:20;;;;;;;5.63;2.20;;;24.30;97.20;;;;;;4089836;28;21179;-68
2022/07/26 08:57:20;;;;;;;5.90;2.33;;;24.40;97.30;;;;;;4092183;28;20034;-68
2022/07/26 08:59:21;;;;;;;5.68;2.05;;;24.50;96.90;;;;;;4090699;28;20043;-68
2022/07/26 09:01:21;;;;;;;5.63;1.83;;;24.50;96.30;;;;;;4090780;28;20063;-68
2022/07/26 09:03:25;;;;;;;5.75;1.85;;;24.40;96.40;;;;;;4093302;28;20514;-68
2022/07/26 09:05:34;;;;;;;4.15;1.80;;;24.40;96.00;;;;;;4092049;28;20081;-68
2022/07/26 09:07:38;;;;;;;4.78;1.40;;;24.40;97.10;;;;;;4093955;28;20046;-68
2022/07/26 09:09:56;;;;;;;5.88;1.95;;;24.40;96.30;;;;;;4094120;28;20078;-68
2022/07/26 09:11:58;;;;;;;5.13;1.98;;;24.40;97.20;;;;;;4094025;28;20122;-68
2022/07/26 09:14:01;;;;;;;3.13;1.37;;;24.40;97.30;;;;;;4095661;28;20035;-68
2022/07/26 09:16:11;;;;;;;4.32;1.67;;;24.40;96.60;;;;;;4091274;29;20274;-68
2022/07/26 09:18:28;;;;;;;3.13;1.48;;;24.50;95.90;;;;;;4093480;28;20035;-69
2022/07/26 09:20:30;;;;;;;5.75;1.88;;;24.60;96.40;;;;;;4094178;28;20032;-68
2022/07/26 09:22:31;;;;;;;;;;;24.60;95.80;;;;;;4097026;28;20039;-68
2022/07/26 09:24:34;;;;;;;5.35;1.35;;;24.60;94.80;;;;;;4095582;28;19914;-68
2022/07/26 09:26:35;;;;;;;5.15;1.52;;;24.50;95.20;;;;;;4089670;28;20507;-68
2022/07/26 09:28:36;;;;;;;4.68;2.05;;;24.50;95.70;;;;;;4096018;28;20082;-68
2022/07/26 09:30:36;;;;;;;4.30;1.50;;;24.50;95.30;;;;;;4093001;28;20498;-68
2022/07/26 09:32:37;;;;;;;4.30;1.58;;;24.50;96.30;;;;;;4092041;28;20023;-68
2022/07/26 09:34:38;;;;;;;4.05;1.27;;;24.50;95.60;;;;;;4092822;28;20191;-68
2022/07/26 09:36:53;;;;;;;3.28;1.38;;;24.40;95.20;;;;;;4075788;29;20499;-68
2022/07/26 09:38:57;;;;;;;6.78;1.95;;;24.30;95.10;;;;;;4090685;28;20103;-68
2022/07/26 09:40:58;;;;;;;3.65;1.50;;;24.30;95.80;;;;;;4091715;29;20047;-68
2022/07/26 09:43:04;;;;;;;5.15;1.50;;;24.30;96.30;;;;;;4093193;28;20103;-68
2022/07/26 09:45:15;;;;;;;6.30;1.25;;;24.20;96.10;;;;;;4091805;29;20375;-69
2022/07/26 09:47:16;;;;;;;5.80;1.52;;;24.10;96.60;;;;;;4091218;28;20094;-68
2022/07/26 09:49:19;;;;;;;5.57;1.25;;;24.20;97.10;;;;;;4090718;29;20510;-68
2022/07/26 09:51:47;;;;;;;5.32;1.80;;;24.30;96.70;;;;;;4090169;28;20129;-69
2022/07/26 09:53:48;;;;;;;3.25;1.50;;;24.20;97.30;;;;;;4086240;28;20488;-68
2022/07/26 09:55:48;;;;;;;8.27;1.80;;;24.20;96.20;;;;;;4089542;28;20042;-69
2022/07/26 09:57:52;;;;;;;4.55;1.50;;;24.10;96.40;;;;;;4092861;29;20699;-69
2022/07/26 09:59:54;;;;;;;4.95;1.63;;;23.90;97.40;;;;;;4091529;29;20041;-68
2022/07/26 10:01:57;;;;;;;1.88;1.00;;;23.70;99.00;;;;;;4089661;29;20055;-68
2022/07/26 10:03:58;;;;;;;2.15;0.85;;;23.60;99.90;;;;;;4092809;28;20047;-68
2022/07/26 10:06:00;;;;;;;4.57;1.20;;;23.50;99.90;;;;;;4090534;28;20069;-68
2022/07/26 10:08:02;;;;;;;4.60;1.08;;;23.30;99.90;;;;;;4091307;28;20047;-68
2022/07/26 10:10:07;;;;;;;1.75;0.82;;;23.20;99.90;;;;;;4089444;28;20035;-68
2022/07/26 10:12:12;;;;;;;2.83;1.10;;;23.10;99.90;;;;;;4091867;29;20043;-68
2022/07/26 10:14:31;;;;;;;1.45;0.60;;;23.10;99.90;;;;;;4075946;29;20531;-68
2022/07/26 10:16:33;;;;;;;1.83;0.93;;;23.00;99.90;;;;;;4090228;29;20097;-68
2022/07/26 10:18:36;;;;;;;1.05;0.90;;;22.90;99.90;;;;;;4092832;28;20090;-68
2022/07/26 10:20:48;;;;;;;3.30;0.77;;;22.90;99.90;;;;;;4091069;28;20047;-68
2022/07/26 10:22:49;;;;;;;1.63;0.80;;;22.80;99.90;;;;;;4094364;29;20051;-69
2022/07/26 10:24:53;;;;;;;2.05;0.90;;;22.80;99.90;;;;;;4095435;29;20085;-69
2022/07/26 10:26:54;;;;;;;2.15;0.43;;;22.80;99.90;;;;;;4094696;28;20067;-68
2022/07/26 10:28:55;;;;;;;1.13;0.55;;;22.80;99.90;;;;;;4095190;28;20047;-68
2022/07/26 10:31:18;;;;;;;1.85;0.50;;;22.80;99.90;;;;;;4092342;28;20402;-68
2022/07/26 10:33:23;;;;;;;0.75;0.40;;;22.80;99.90;;;;;;4085971;28;20113;-69
2022/07/26 10:35:39;;;;;;;1.00;0.55;;;22.80;99.90;;;;;;4096790;29;20066;-68
2022/07/26 10:37:57;;;;;;;1.98;0.65;;;22.80;99.90;;;;;;4095678;28;20047;-68
2022/07/26 10:40:18;;;;;;;2.20;0.40;;;22.60;99.90;;;;;;4096038;28;20038;-68
2022/07/26 10:42:19;;;;;;;0.90;0.40;;;22.70;99.90;;;;;;4098236;28;20070;-69
2022/07/26 10:44:26;;;;;;;0.75;0.45;;;22.70;99.90;;;;;;4086493;29;20032;-68
2022/07/26 10:46:28;;;;;;;0.80;0.47;;;22.70;99.90;;;;;;4096025;28;20034;-68
2022/07/26 10:48:28;;;;;;;0.60;0.43;;;22.70;99.90;;;;;;4097322;28;20086;-68
2022/07/26 10:50:32;;;;;;;0.77;0.40;;;22.70;99.90;;;;;;4093369;28;20030;-68
2022/07/26 10:52:33;;;;;;;0.90;0.47;;;22.70;99.90;;;;;;4095631;28;20055;-68
2022/07/26 10:55:03;;;;;;;2.20;0.52;;;22.80;99.90;;;;;;4098797;28;20027;-68
2022/07/26 10:57:03;;;;;;;0.82;0.30;;;22.80;99.90;;;;;;4093980;28;20027;-68
2022/07/26 10:59:05;;;;;;;1.20;0.50;;;22.80;99.90;;;;;;4096978;28;20483;-68
2022/07/26 11:01:05;;;;;;;0.63;0.22;;;22.90;99.90;;;;;;4095645;28;20039;-68
2022/07/26 11:03:06;;;;;;;1.02;0.40;;;22.90;99.90;;;;;;4098095;28;20331;-68
2022/07/26 11:05:13;;;;;;;1.83;0.52;;;22.90;99.90;;;;;;4098465;28;20484;-68
2022/07/26 11:07:13;;;;;;;0.85;0.20;;;22.90;99.90;;;;;;4097928;28;20039;-68
2022/07/26 11:09:16;;;;;;;0.95;0.30;;;22.90;99.90;;;;;;4095779;28;20066;-68
2022/07/26 11:11:35;;;;;;;0.85;0.38;;;23.00;99.90;;;;;;4097703;28;20125;-68
2022/07/26 11:13:36;;;;;;;1.15;0.43;;;23.10;99.90;;;;;;4109238;28;20458;-68
2022/07/26 11:15:42;;;;;;;0.82;0.40;;;23.20;99.90;;;;;;4097699;28;20035;-68
2022/07/26 11:17:43;;;;;;;0.43;0.15;;;23.30;99.90;;;;;;4095356;28;20039;-69